createdAt,value
2019-05-01T00:02:17.808Z,100148.23
2019-05-01T00:07:22.900Z,100141.29
2019-05-01T00:12:26.530Z,100130.78
2019-05-01T00:17:30.502Z,100131.56
2019-05-01T00:22:33.960Z,100131.41
2019-05-01T00:27:37.415Z,100130.02
2019-05-01T00:32:40.878Z,100127.25
2019-05-01T00:37:44.338Z,100118.73
2019-05-01T00:42:47.803Z,100118.55
2019-05-01T00:47:51.261Z,100114.20
2019-05-01T00:52:54.782Z,100114.99
2019-05-01T00:58:08.682Z,100105.69
2019-05-01T01:03:12.153Z,100099.34
2019-05-01T01:08:15.977Z,100097.00
2019-05-01T01:13:19.441Z,100100.73
2019-05-01T01:18:22.897Z,100098.56
2019-05-01T01:23:26.721Z,100103.94
2019-05-01T01:28:30.316Z,100097.45
2019-05-01T01:33:33.844Z,100103.01
2019-05-01T01:38:37.305Z,100090.33
2019-05-01T01:43:42.573Z,100086.16
2019-05-01T01:48:46.311Z,100089.55
2019-05-01T01:53:52.077Z,100086.41
2019-05-01T01:58:56.373Z,100085.80
2019-05-01T02:04:01.914Z,100082.84
2019-05-01T02:09:08.014Z,100070.77
2019-05-01T02:14:11.482Z,100061.05
2019-05-01T02:19:14.939Z,100056.88
2019-05-01T02:24:18.400Z,100061.05
2019-05-01T02:29:27.310Z,100064.00
2019-05-01T02:34:31.505Z,100061.50
2019-05-01T02:39:36.611Z,100065.67
2019-05-01T02:44:48.916Z,100073.38
2019-05-01T02:49:55.146Z,100066.27
2019-05-01T02:55:02.989Z,100057.16
2019-05-01T03:00:07.153Z,100057.77
2019-05-01T03:05:10.947Z,100046.65
2019-05-01T03:10:14.747Z,100040.92
2019-05-01T03:15:21.090Z,100029.80
2019-05-01T03:20:29.245Z,100039.53
2019-05-01T03:25:32.773Z,100035.97
2019-05-01T03:30:36.472Z,100041.52
2019-05-01T03:35:40.478Z,100042.73
2019-05-01T03:40:44.206Z,100029.45
2019-05-01T03:45:48.443Z,100023.28
2019-05-01T03:50:52.073Z,100022.50
2019-05-01T03:55:55.700Z,100019.55
2019-05-01T04:01:13.287Z,100031.44
2019-05-01T04:06:16.827Z,100034.83
2019-05-01T04:11:20.622Z,100038.98
2019-05-01T04:16:24.261Z,100031.88
2019-05-01T04:21:29.367Z,100038.39
2019-05-01T04:26:33.018Z,100036.21
2019-05-01T04:42:09.752Z,100042.38
2019-05-01T04:47:14.419Z,100038.98
2019-05-01T04:52:17.883Z,100046.54
2019-05-01T04:57:21.581Z,100040.20
2019-05-01T05:02:29.536Z,100045.00
2019-05-01T05:07:33.075Z,100044.37
2019-05-01T05:12:44.833Z,100036.67
2019-05-01T05:17:48.461Z,100043.77
2019-05-01T05:22:52.373Z,100046.54
2019-05-01T05:27:57.474Z,100049.31
2019-05-01T05:33:17.173Z,100055.66
2019-05-01T05:38:12.301Z,100055.05
2019-05-01T05:43:16.230Z,100052.70
2019-05-01T05:48:20.030Z,100050.70
2019-05-01T05:53:29.652Z,100050.10
2019-05-01T05:58:36.630Z,100043.77
2019-05-01T06:03:52.876Z,100047.14
2019-05-01T06:08:59.617Z,100057.05
2019-05-01T06:14:05.255Z,100053.48
2019-05-01T06:19:25.631Z,100055.66
2019-05-01T06:24:35.777Z,100053.06
2019-05-01T06:29:37.626Z,100053.48
2019-05-01T06:34:41.354Z,100052.27
2019-05-01T06:39:48.002Z,100057.05
2019-05-01T06:44:58.115Z,100051.49
2019-05-01T06:50:07.812Z,100053.06
2019-05-01T06:55:11.586Z,100058.72
2019-05-01T07:00:17.532Z,100056.70
2019-05-01T07:05:21.925Z,100054.10
2019-05-01T07:10:31.651Z,100042.81
2019-05-01T07:15:32.373Z,100054.61
2019-05-01T07:20:47.280Z,100040.95
2019-05-01T07:25:51.782Z,100053.44
2019-05-01T07:30:57.222Z,100046.89
2019-05-01T07:36:01.236Z,100038.84
2019-05-01T07:41:05.231Z,100033.38
2019-05-01T07:46:19.593Z,100032.12
2019-05-01T07:51:23.284Z,100033.23
2019-05-01T07:56:28.286Z,100030.30
2019-05-01T08:01:33.583Z,100034.80
2019-05-01T08:06:37.052Z,100035.58
2019-05-01T08:11:44.202Z,100038.93
2019-05-01T08:16:45.721Z,100038.93
2019-05-01T08:21:50.832Z,100027.59
2019-05-01T08:26:54.305Z,100034.77
2019-05-01T08:32:15.888Z,100038.05
2019-05-01T08:37:22.559Z,100045.78
2019-05-01T08:42:24.720Z,100039.44
2019-05-01T08:47:29.828Z,100045.78
2019-05-01T08:52:33.472Z,100041.37
2019-05-01T08:57:39.323Z,100045.62
2019-05-01T09:02:43.472Z,100047.97
2019-05-01T09:07:51.128Z,100050.75
2019-05-01T09:12:52.244Z,100053.89
2019-05-01T09:17:55.728Z,100047.97
2019-05-01T09:22:59.215Z,100046.34
2019-05-01T09:28:16.446Z,100046.70
2019-05-01T09:33:19.926Z,100042.86
2019-05-01T09:38:23.412Z,100038.28
2019-05-01T09:43:30.930Z,100039.42
2019-05-01T09:48:32.413Z,100032.05
2019-05-01T09:53:43.487Z,100027.36
2019-05-01T09:58:46.970Z,100027.36
2019-05-01T10:03:54.675Z,100029.11
2019-05-01T10:08:55.658Z,100030.50
2019-05-01T10:13:59.727Z,100024.95
2019-05-01T10:19:03.305Z,100024.66
2019-05-01T10:24:06.790Z,100020.44
2019-05-01T10:29:21.387Z,100016.59
2019-05-01T10:34:33.102Z,100010.00
2019-05-01T10:39:36.578Z,99999.86
2019-05-01T10:44:40.063Z,99992.91
2019-05-01T10:49:43.615Z,99987.71
2019-05-01T10:54:47.089Z,99978.23
2019-05-01T10:59:50.566Z,99973.64
2019-05-01T11:04:54.042Z,99972.78
2019-05-01T11:09:57.523Z,99953.84
2019-05-01T11:15:01.003Z,99961.67
2019-05-01T11:20:06.723Z,99961.83
2019-05-01T11:25:10.837Z,99958.87
2019-05-01T11:30:15.328Z,99959.40
2019-05-01T11:35:29.297Z,99963.64
2019-05-01T11:40:37.103Z,99960.00
2019-05-01T11:45:40.569Z,99948.60
2019-05-01T11:50:44.032Z,99945.07
2019-05-01T11:55:47.499Z,99953.13
2019-05-01T12:00:52.607Z,99948.88
2019-05-01T12:05:56.298Z,99944.88
2019-05-01T12:11:00.530Z,99942.10
2019-05-01T12:16:05.635Z,99936.69
2019-05-01T12:21:09.093Z,99934.98
2019-05-01T12:26:12.555Z,99934.80
2019-05-01T12:31:16.021Z,99935.48
2019-05-01T12:36:19.480Z,99914.41
2019-05-01T12:41:27.248Z,99916.69
2019-05-01T12:46:34.902Z,99908.50
2019-05-01T12:51:39.434Z,99906.36
2019-05-01T12:56:58.901Z,99898.28
2019-05-01T13:02:02.358Z,99891.58
2019-05-01T13:07:06.087Z,99894.36
2019-05-01T13:12:09.547Z,99889.33
2019-05-01T13:17:13.005Z,99885.66
2019-05-01T13:22:16.462Z,99884.45
2019-05-01T13:27:24.642Z,99873.52
2019-05-01T13:32:41.737Z,99872.05
2019-05-01T13:37:45.198Z,99868.92
2019-05-01T13:42:48.659Z,99855.64
2019-05-01T13:47:54.406Z,99851.30
2019-05-01T13:52:58.179Z,99839.09
2019-05-01T13:58:01.635Z,99831.97
2019-05-01T14:03:05.264Z,99831.36
2019-05-01T14:08:08.716Z,99831.25
2019-05-01T14:13:12.345Z,99825.61
2019-05-01T14:18:15.805Z,99820.72
2019-05-01T14:23:30.099Z,99811.78
2019-05-01T14:28:35.832Z,99813.08
2019-05-01T14:33:39.294Z,99809.05
2019-05-01T14:38:42.747Z,99804.63
2019-05-01T14:43:46.212Z,99804.69
2019-05-01T14:48:49.664Z,99800.72
2019-05-01T14:53:53.121Z,99797.94
2019-05-01T14:58:56.577Z,99787.52
2019-05-01T15:04:00.032Z,99788.91
2019-05-01T15:09:05.127Z,99788.91
2019-05-01T15:14:12.725Z,99788.91
2019-05-01T15:19:20.472Z,99781.96
2019-05-01T15:24:23.934Z,99777.36
2019-05-01T15:29:27.389Z,99761.20
2019-05-01T15:34:30.851Z,99771.06
2019-05-01T15:39:35.949Z,99769.68
2019-05-01T15:44:41.047Z,99758.56
2019-05-01T15:49:44.502Z,99761.08
2019-05-01T15:54:47.955Z,99751.52
2019-05-01T15:59:51.412Z,99750.13
2019-05-01T16:04:54.868Z,99744.57
2019-05-01T16:09:58.319Z,99747.50
2019-05-01T16:15:01.785Z,99747.35
2019-05-01T16:20:07.501Z,99741.16
2019-05-01T16:25:11.188Z,99739.50
2019-05-01T16:30:16.626Z,99732.38
2019-05-01T16:35:20.082Z,99741.67
2019-05-01T16:40:28.261Z,99735.94
2019-05-01T16:45:31.721Z,99733.33
2019-05-01T16:50:35.177Z,99731.50
2019-05-01T16:55:38.635Z,99720.22
2019-05-01T17:01:04.292Z,99720.56
2019-05-01T17:06:21.404Z,99723.51
2019-05-01T17:11:26.566Z,99720.73
2019-05-01T17:16:30.030Z,99713.92
2019-05-01T17:21:33.485Z,99710.09
2019-05-01T17:26:36.940Z,99714.44
2019-05-01T17:31:40.396Z,99712.27
2019-05-01T17:36:43.854Z,99710.44
2019-05-01T17:41:47.315Z,99711.99
2019-05-01T17:46:50.784Z,99707.22
2019-05-01T17:51:54.244Z,99710.92
2019-05-01T17:56:57.697Z,99708.92
2019-05-01T18:02:05.372Z,99708.31
2019-05-01T18:07:07.972Z,99713.87
2019-05-01T18:12:11.456Z,99712.48
2019-05-01T18:17:14.979Z,99707.09
2019-05-01T18:22:37.249Z,99701.53
2019-05-01T18:27:41.629Z,99698.14
2019-05-01T18:32:47.462Z,99699.53
2019-05-01T18:37:51.985Z,99703.87
2019-05-01T18:42:55.441Z,99700.48
2019-05-01T18:47:58.900Z,99702.04
2019-05-01T18:53:02.356Z,99694.48
2019-05-01T18:58:06.050Z,99696.19
2019-05-01T19:03:09.574Z,99695.57
2019-05-01T19:08:13.022Z,99699.30
2019-05-01T19:13:16.753Z,99701.64
2019-05-01T19:18:20.200Z,99707.69
2019-05-01T19:23:27.957Z,99702.30
2019-05-01T19:33:31.375Z,99708.37
2019-05-01T19:38:36.998Z,99707.15
2019-05-01T19:43:42.109Z,99706.09
2019-05-01T19:48:50.849Z,99703.92
2019-05-01T19:53:51.769Z,99699.24
2019-05-01T19:58:56.193Z,99691.78
2019-05-01T20:03:59.593Z,99694.42
2019-05-01T20:09:04.690Z,99695.30
2019-05-01T20:14:08.146Z,99691.73
2019-05-01T20:19:11.670Z,99692.80
2019-05-01T20:24:15.124Z,99687.70
2019-05-01T20:29:18.582Z,99683.97
2019-05-01T20:34:22.043Z,99681.02
2019-05-01T20:39:25.500Z,99680.84
2019-05-01T20:44:28.952Z,99682.06
2019-05-01T20:49:36.522Z,99680.34
2019-05-01T20:54:37.589Z,99677.24
2019-05-01T20:59:41.048Z,99681.24
2019-05-01T21:04:46.144Z,99676.13
2019-05-01T21:09:57.900Z,99673.95
2019-05-01T21:14:58.876Z,99671.44
2019-05-01T21:20:03.786Z,99673.30
2019-05-01T21:25:07.541Z,99665.40
2019-05-01T21:30:11.131Z,99667.23
2019-05-01T21:35:14.590Z,99666.45
2019-05-01T21:40:18.059Z,99665.67
2019-05-01T21:45:22.962Z,99657.16
2019-05-01T21:50:26.722Z,99657.16
2019-05-01T21:55:32.044Z,99648.68
2019-05-01T22:00:39.663Z,99645.73
2019-05-01T22:05:43.119Z,99649.90
2019-05-01T22:10:52.233Z,99637.83
2019-05-01T22:16:09.803Z,99640.00
2019-05-01T22:21:17.594Z,99632.09
2019-05-01T22:26:21.420Z,99628.54
2019-05-01T22:31:26.518Z,99629.16
2019-05-01T22:36:29.970Z,99626.98
2019-05-01T22:41:33.428Z,99626.20
2019-05-01T22:46:39.022Z,99617.70
2019-05-01T22:51:42.067Z,99618.47
2019-05-01T22:56:45.521Z,99612.60
2019-05-01T23:01:52.999Z,99606.44
2019-05-01T23:06:55.793Z,99598.53
2019-05-01T23:11:59.321Z,99599.92
2019-05-01T23:17:05.183Z,99592.98
2019-05-01T23:22:08.720Z,99586.03
2019-05-01T23:27:12.177Z,99589.42
2019-05-01T23:32:15.632Z,99578.91
2019-05-01T23:37:19.090Z,99572.58
2019-05-01T23:42:22.545Z,99573.36
2019-05-01T23:47:25.999Z,99559.29
2019-05-01T23:52:29.457Z,99555.73
2019-05-01T23:57:34.188Z,99548.01
